Time;durP1;ratioP1;P1;durP2;ratioP2;P2;SDS_P1;SDS_P2;PMS_P1;PMS_P2;Temp;Humidity;BMP_temperature;BMP_pressure;BME280_temperature;BME280_humidity;BME280_pressure;Samples;Min_cycle;Max_cycle;Signal;HPM_P1;HPM_P2
2023/09/12 00:01:55;;;;;;;1999.90;999.90;;;;;;;;;;4973875;28;20907;-69
2023/09/12 00:04:40;;;;;;;1999.90;999.90;;;;;;;;;;4983153;28;20211;-71
2023/09/12 00:07:26;;;;;;;1999.90;999.90;;;;;;;;;;4994897;28;20298;-70
2023/09/12 00:10:11;;;;;;;1999.90;999.90;;;;;;;;;;4994746;28;20249;-70
2023/09/12 00:12:56;;;;;;;1999.90;999.90;;;;;;;;;;4993682;28;20211;-69
2023/09/12 00:15:42;;;;;;;1999.90;999.90;;;;;;;;;;4972320;28;20210;-70
2023/09/12 00:18:28;;;;;;;1999.90;999.90;;;;;;;;;;4974531;28;20259;-69
2023/09/12 00:21:12;;;;;;;1999.90;999.90;;;;;;;;;;4974748;28;20576;-70
2023/09/12 00:23:59;;;;;;;1999.90;999.90;;;;;;;;;;4974488;28;20698;-70
2023/09/12 00:26:44;;;;;;;1999.90;999.90;;;;;;;;;;4974550;28;20700;-70
2023/09/12 00:29:29;;;;;;;1999.90;999.90;;;;;;;;;;4974960;28;20690;-70
2023/09/12 00:32:14;;;;;;;1999.90;999.90;;;;;;;;;;4967515;28;20290;-69
2023/09/12 00:34:59;;;;;;;1999.90;999.90;;;;;;;;;;4982052;28;20310;-68
2023/09/12 00:37:44;;;;;;;1999.90;999.90;;;;;;;;;;4982634;28;20237;-67
2023/09/12 00:40:30;;;;;;;1999.90;999.90;;;;;;;;;;4993838;28;20702;-69
2023/09/12 00:43:16;;;;;;;1999.90;999.90;;;;;;;;;;4986958;28;20273;-68
2023/09/12 00:46:01;;;;;;;1999.90;999.90;;;;;;;;;;4992531;28;20414;-68
2023/09/12 00:48:47;;;;;;;1999.90;999.90;;;;;;;;;;4992957;28;20213;-70
2023/09/12 00:51:33;;;;;;;1999.90;999.90;;;;;;;;;;4988963;28;20297;-68
2023/09/12 00:54:18;;;;;;;1999.90;999.90;;;;;;;;;;4993578;28;20251;-68
2023/09/12 00:57:05;;;;;;;1999.90;999.90;;;;;;;;;;4985586;28;20312;-69
2023/09/12 00:59:50;;;;;;;1999.90;999.90;;;;;;;;;;4985672;28;20218;-70
2023/09/12 01:02:35;;;;;;;1999.90;999.90;;;;;;;;;;4993341;28;20221;-69
2023/09/12 01:05:21;;;;;;;1999.90;999.90;;;;;;;;;;4980882;28;20214;-68
2023/09/12 01:08:06;;;;;;;1999.90;999.90;;;;;;;;;;4993785;28;20230;-68
2023/09/12 01:10:53;;;;;;;1999.90;999.90;;;;;;;;;;4984535;28;20419;-68
2023/09/12 01:13:39;;;;;;;1999.90;999.90;;;;;;;;;;4994000;28;20269;-68
2023/09/12 01:16:24;;;;;;;1999.90;999.90;;;;;;;;;;4993724;28;20243;-69
2023/09/12 01:19:11;;;;;;;1999.90;999.90;;;;;;;;;;4993675;28;20596;-68
2023/09/12 01:22:13;;;;;;;1999.90;999.90;;;;;;;;;;4991653;28;20210;-68
2023/09/12 01:25:09;;;;;;;1999.90;999.90;;;;;;;;;;4983276;28;20210;-70
2023/09/12 01:27:56;;;;;;;1999.90;999.90;;;;;;;;;;4984228;28;20237;-69
2023/09/12 01:30:43;;;;;;;1999.90;999.90;;;;;;;;;;4989575;28;20214;-69
2023/09/12 01:33:28;;;;;;;1999.90;999.90;;;;;;;;;;4992792;28;20318;-69
2023/09/12 01:36:13;;;;;;;1999.90;999.90;;;;;;;;;;4993537;28;20366;-70
2023/09/12 01:38:59;;;;;;;1999.90;999.90;;;;;;;;;;4985251;28;20226;-70
2023/09/12 01:41:45;;;;;;;1999.90;999.90;;;;;;;;;;4993551;28;20224;-70
2023/09/12 01:44:32;;;;;;;1999.90;999.90;;;;;;;;;;4982433;28;20412;-68
2023/09/12 01:47:20;;;;;;;1999.90;999.90;;;;;;;;;;4986211;28;20713;-68
2023/09/12 01:50:06;;;;;;;1999.90;999.90;;;;;;;;;;4985429;28;20232;-70
2023/09/12 01:52:52;;;;;;;1999.90;999.90;;;;;;;;;;4992878;28;20217;-69
2023/09/12 01:55:37;;;;;;;1999.90;999.90;;;;;;;;;;4988668;28;20233;-69
2023/09/12 01:58:22;;;;;;;1999.90;999.90;;;;;;;;;;4993140;28;20214;-70
2023/09/12 02:01:09;;;;;;;1999.90;999.90;;;;;;;;;;4981935;28;20232;-70
2023/09/12 02:03:54;;;;;;;1999.90;999.90;;;;;;;;;;4989809;28;20208;-70
2023/09/12 02:06:39;;;;;;;1999.90;999.90;;;;;;;;;;4992462;28;20229;-70
2023/09/12 02:09:24;;;;;;;1999.90;999.90;;;;;;;;;;4992718;28;20696;-70
2023/09/12 02:12:09;;;;;;;1999.90;999.90;;;;;;;;;;4992782;28;20703;-70
2023/09/12 02:14:54;;;;;;;1999.90;999.90;;;;;;;;;;4992600;28;20263;-70
2023/09/12 02:17:40;;;;;;;1999.90;999.90;;;;;;;;;;4991587;28;20429;-70
2023/09/12 02:20:25;;;;;;;1999.90;999.90;;;;;;;;;;4992722;28;20213;-70
2023/09/12 02:23:10;;;;;;;1999.90;999.90;;;;;;;;;;4992302;28;20211;-70
2023/09/12 02:25:56;;;;;;;1999.90;999.90;;;;;;;;;;4992498;28;20210;-70
2023/09/12 02:28:41;;;;;;;1999.90;999.90;;;;;;;;;;4992986;28;20207;-70
2023/09/12 02:31:26;;;;;;;1999.90;999.90;;;;;;;;;;4992476;28;20205;-70
2023/09/12 02:34:12;;;;;;;1999.90;999.90;;;;;;;;;;4992095;28;20220;-70
2023/09/12 02:36:57;;;;;;;1999.90;999.90;;;;;;;;;;4994088;28;20598;-70
2023/09/12 02:39:42;;;;;;;1999.90;999.90;;;;;;;;;;4996363;28;20208;-70
2023/09/12 02:42:27;;;;;;;1999.90;999.90;;;;;;;;;;4996056;28;20233;-70
2023/09/12 02:45:12;;;;;;;1999.90;999.90;;;;;;;;;;4996103;28;20195;-70
2023/09/12 02:47:57;;;;;;;1999.90;999.90;;;;;;;;;;4996182;28;20272;-70
2023/09/12 02:50:43;;;;;;;1999.90;999.90;;;;;;;;;;4996196;28;20210;-70
2023/09/12 02:53:28;;;;;;;1999.90;999.90;;;;;;;;;;4995891;28;20203;-70
2023/09/12 02:56:13;;;;;;;1999.90;999.90;;;;;;;;;;4996079;28;20730;-71
2023/09/12 02:58:58;;;;;;;1999.90;999.90;;;;;;;;;;4996012;28;20332;-71
2023/09/12 03:01:43;;;;;;;1999.90;999.90;;;;;;;;;;4994552;28;20413;-70
2023/09/12 03:04:28;;;;;;;1999.90;999.90;;;;;;;;;;4996054;28;20662;-71
2023/09/12 03:07:14;;;;;;;1999.90;999.90;;;;;;;;;;4989454;28;20232;-71
2023/09/12 03:09:59;;;;;;;1999.90;999.90;;;;;;;;;;4987721;28;20716;-71
2023/09/12 03:12:44;;;;;;;1999.90;999.90;;;;;;;;;;4995603;28;20202;-70
2023/09/12 03:15:29;;;;;;;1999.90;999.90;;;;;;;;;;4995530;28;20719;-70
2023/09/12 03:18:14;;;;;;;1999.90;999.90;;;;;;;;;;4995573;28;20314;-70
2023/09/12 03:21:01;;;;;;;1999.90;999.90;;;;;;;;;;4995835;28;20260;-71
2023/09/12 03:23:47;;;;;;;1999.90;999.90;;;;;;;;;;4985946;28;20513;-70
2023/09/12 03:26:34;;;;;;;1999.90;999.90;;;;;;;;;;4985302;28;20813;-70
2023/09/12 03:29:19;;;;;;;1999.90;999.90;;;;;;;;;;4982452;28;20297;-70
2023/09/12 03:32:04;;;;;;;1999.90;999.90;;;;;;;;;;4984258;28;20213;-71
2023/09/12 03:34:50;;;;;;;1999.90;999.90;;;;;;;;;;4987461;28;20330;-70
2023/09/12 03:37:34;;;;;;;1999.90;999.90;;;;;;;;;;4976617;28;20232;-71
2023/09/12 03:40:21;;;;;;;1999.90;999.90;;;;;;;;;;4974697;28;20280;-71
2023/09/12 03:43:06;;;;;;;1999.90;999.90;;;;;;;;;;4986333;28;20335;-71
2023/09/12 03:45:50;;;;;;;1999.90;999.90;;;;;;;;;;4994028;28;20206;-71
2023/09/12 03:48:36;;;;;;;1999.90;999.90;;;;;;;;;;4995317;28;20551;-70
2023/09/12 03:51:21;;;;;;;1999.90;999.90;;;;;;;;;;4995109;28;20573;-70
2023/09/12 03:54:06;;;;;;;1999.90;999.90;;;;;;;;;;4994999;28;20208;-71
2023/09/12 03:56:54;;;;;;;1999.90;999.90;;;;;;;;;;4995049;28;20275;-71
2023/09/12 03:59:38;;;;;;;1999.90;999.90;;;;;;;;;;4994971;28;20220;-71
2023/09/12 04:02:24;;;;;;;1999.90;999.90;;;;;;;;;;4969176;28;20586;-70
2023/09/12 04:05:10;;;;;;;1999.90;999.90;;;;;;;;;;4980156;28;20216;-70
2023/09/12 04:07:55;;;;;;;1999.90;999.90;;;;;;;;;;4976247;28;20418;-70
2023/09/12 04:10:40;;;;;;;1999.90;999.90;;;;;;;;;;4981968;28;20203;-70
2023/09/12 04:13:27;;;;;;;1999.90;999.90;;;;;;;;;;4975102;28;20216;-70
2023/09/12 04:16:12;;;;;;;1999.90;999.90;;;;;;;;;;4977044;28;20370;-69
2023/09/12 04:18:58;;;;;;;1999.90;999.90;;;;;;;;;;4977566;28;20208;-71
2023/09/12 04:21:43;;;;;;;1999.90;999.90;;;;;;;;;;4975223;28;20251;-70
2023/09/12 04:24:28;;;;;;;1999.90;999.90;;;;;;;;;;4977976;28;20571;-71
2023/09/12 04:27:13;;;;;;;1999.90;999.90;;;;;;;;;;4981780;28;20228;-70
2023/09/12 04:30:00;;;;;;;1999.90;999.90;;;;;;;;;;4975056;28;20208;-70
2023/09/12 04:32:45;;;;;;;1999.90;999.90;;;;;;;;;;4972170;28;20835;-71
2023/09/12 04:35:33;;;;;;;1999.90;999.90;;;;;;;;;;4976564;28;20354;-70
2023/09/12 04:38:20;;;;;;;1999.90;999.90;;;;;;;;;;4981015;28;20287;-69
2023/09/12 04:41:06;;;;;;;1999.90;999.90;;;;;;;;;;4978672;28;20720;-69
2023/09/12 04:43:51;;;;;;;1999.90;999.90;;;;;;;;;;4978045;28;20601;-69
2023/09/12 04:46:38;;;;;;;1999.90;999.90;;;;;;;;;;4971644;28;20315;-69
2023/09/12 04:49:23;;;;;;;1999.90;999.90;;;;;;;;;;4977504;28;20216;-69
2023/09/12 04:52:08;;;;;;;1999.90;999.90;;;;;;;;;;4977627;28;20309;-69
2023/09/12 04:54:53;;;;;;;1999.90;999.90;;;;;;;;;;4976543;28;20278;-68
2023/09/12 04:57:38;;;;;;;1999.90;999.90;;;;;;;;;;4980586;28;20227;-69
2023/09/12 05:00:24;;;;;;;1999.90;999.90;;;;;;;;;;4982405;28;20587;-68
2023/09/12 05:03:10;;;;;;;1999.90;999.90;;;;;;;;;;4974430;28;20275;-68
2023/09/12 05:05:55;;;;;;;1999.90;999.90;;;;;;;;;;4974239;28;20287;-69
2023/09/12 05:08:40;;;;;;;1999.90;999.90;;;;;;;;;;4974415;28;20215;-70
2023/09/12 05:11:25;;;;;;;1999.90;999.90;;;;;;;;;;4973805;28;20340;-69
2023/09/12 05:14:10;;;;;;;1999.90;999.90;;;;;;;;;;4973358;28;20281;-69
2023/09/12 05:16:56;;;;;;;1999.90;999.90;;;;;;;;;;4972359;28;20430;-70
2023/09/12 05:19:42;;;;;;;1999.90;999.90;;;;;;;;;;4973873;28;20212;-70
2023/09/12 05:22:28;;;;;;;1999.90;999.90;;;;;;;;;;4973147;28;20785;-70
2023/09/12 05:25:13;;;;;;;1999.90;999.90;;;;;;;;;;4970828;28;20303;-70
2023/09/12 05:27:58;;;;;;;1999.90;999.90;;;;;;;;;;4973900;28;20276;-70
2023/09/12 05:30:43;;;;;;;1999.90;999.90;;;;;;;;;;4973867;28;20211;-70
2023/09/12 05:33:29;;;;;;;1999.90;999.90;;;;;;;;;;4973678;28;20209;-70
2023/09/12 05:36:15;;;;;;;1999.90;999.90;;;;;;;;;;4973565;28;20279;-70
2023/09/12 05:39:00;;;;;;;1999.90;999.90;;;;;;;;;;4973638;28;20475;-69
2023/09/12 05:41:45;;;;;;;1999.90;999.90;;;;;;;;;;4973616;28;20217;-70
2023/09/12 05:44:30;;;;;;;1999.90;999.90;;;;;;;;;;4973524;28;20211;-70
2023/09/12 05:47:14;;;;;;;1999.90;999.90;;;;;;;;;;4973588;28;20226;-71
2023/09/12 05:50:00;;;;;;;1999.90;999.90;;;;;;;;;;4973646;28;20633;-70
2023/09/12 05:52:46;;;;;;;1999.90;999.90;;;;;;;;;;4973305;28;20207;-70
2023/09/12 05:55:31;;;;;;;1999.90;999.90;;;;;;;;;;4977547;28;20228;-70
2023/09/12 05:58:17;;;;;;;1999.90;999.90;;;;;;;;;;4969306;28;20316;-69
2023/09/12 06:01:02;;;;;;;1999.90;999.90;;;;;;;;;;4979457;28;20282;-70
2023/09/12 06:03:47;;;;;;;1999.90;999.90;;;;;;;;;;4980772;28;20208;-70
2023/09/12 06:06:32;;;;;;;1999.90;999.90;;;;;;;;;;4991687;28;20234;-72
2023/09/12 06:09:18;;;;;;;1999.90;999.90;;;;;;;;;;4992959;28;20209;-71
2023/09/12 06:12:03;;;;;;;1999.90;999.90;;;;;;;;;;4992575;28;20216;-70
2023/09/12 06:14:48;;;;;;;1999.90;999.90;;;;;;;;;;4992537;28;20235;-70
2023/09/12 06:17:33;;;;;;;1999.90;999.90;;;;;;;;;;4989654;28;20299;-70
2023/09/12 06:20:18;;;;;;;1999.90;999.90;;;;;;;;;;4974366;28;20212;-71
2023/09/12 06:23:05;;;;;;;1999.90;999.90;;;;;;;;;;4977137;28;20462;-70
2023/09/12 06:25:51;;;;;;;1999.90;999.90;;;;;;;;;;4971814;28;20210;-70
2023/09/12 06:28:36;;;;;;;1999.90;999.90;;;;;;;;;;4972637;28;20326;-70
2023/09/12 06:31:21;;;;;;;1999.90;999.90;;;;;;;;;;4972497;28;20340;-70
2023/09/12 06:34:06;;;;;;;1999.90;999.90;;;;;;;;;;4972248;28;20223;-70
2023/09/12 06:36:51;;;;;;;1999.90;999.90;;;;;;;;;;4970512;28;20243;-69
2023/09/12 06:39:36;;;;;;;1999.90;999.90;;;;;;;;;;4979992;28;20219;-70
2023/09/12 06:42:22;;;;;;;1999.90;999.90;;;;;;;;;;4979838;28;20235;-70
2023/09/12 06:45:07;;;;;;;1999.90;999.90;;;;;;;;;;4972766;28;20337;-69
2023/09/12 06:47:52;;;;;;;1999.90;999.90;;;;;;;;;;4971478;28;20565;-70
2023/09/12 06:50:37;;;;;;;1999.90;999.90;;;;;;;;;;4972471;28;20215;-70
2023/09/12 06:53:22;;;;;;;1999.90;999.90;;;;;;;;;;4973474;28;20708;-70
2023/09/12 06:56:07;;;;;;;1999.90;999.90;;;;;;;;;;4979717;28;20226;-70
2023/09/12 06:58:55;;;;;;;1999.90;999.90;;;;;;;;;;4972430;28;20210;-71
2023/09/12 07:01:39;;;;;;;1999.90;999.90;;;;;;;;;;4984168;28;20719;-71
2023/09/12 07:04:25;;;;;;;1999.90;999.90;;;;;;;;;;4970358;28;20223;-71
2023/09/12 07:07:10;;;;;;;1999.90;999.90;;;;;;;;;;4969480;28;20232;-71
2023/09/12 07:09:55;;;;;;;1999.90;999.90;;;;;;;;;;4969495;28;20218;-70
2023/09/12 07:12:39;;;;;;;1999.90;999.90;;;;;;;;;;4970364;28;20218;-71
2023/09/12 07:15:26;;;;;;;1999.90;999.90;;;;;;;;;;4965166;28;20347;-71
2023/09/12 07:18:11;;;;;;;1999.90;999.90;;;;;;;;;;4968737;28;20319;-71
2023/09/12 07:20:59;;;;;;;1999.90;999.90;;;;;;;;;;4972589;28;20215;-70
2023/09/12 07:23:44;;;;;;;1999.90;999.90;;;;;;;;;;4959259;28;20373;-70
2023/09/12 07:26:29;;;;;;;1999.90;999.90;;;;;;;;;;4973750;28;20368;-70
2023/09/12 07:29:14;;;;;;;1999.90;999.90;;;;;;;;;;4971910;28;20219;-70
2023/09/12 07:32:00;;;;;;;1999.90;999.90;;;;;;;;;;4960653;28;20203;-70
2023/09/12 07:34:48;;;;;;;1999.90;999.90;;;;;;;;;;4968458;28;20331;-71
2023/09/12 07:37:33;;;;;;;1999.90;999.90;;;;;;;;;;4978236;28;20302;-70
2023/09/12 07:40:18;;;;;;;1999.90;999.90;;;;;;;;;;4979259;28;20211;-70
2023/09/12 07:43:03;;;;;;;1999.90;999.90;;;;;;;;;;4978596;28;20215;-69
2023/09/12 07:45:49;;;;;;;1999.90;999.90;;;;;;;;;;4978027;28;20227;-71
2023/09/12 07:48:35;;;;;;;1999.90;999.90;;;;;;;;;;4977734;28;20223;-69
2023/09/12 07:51:22;;;;;;;1999.90;999.90;;;;;;;;;;4972880;28;20590;-69
2023/09/12 07:54:07;;;;;;;1999.90;999.90;;;;;;;;;;4975553;28;20211;-70
2023/09/12 07:56:52;;;;;;;1999.90;999.90;;;;;;;;;;4979841;28;20416;-70
2023/09/12 07:59:37;;;;;;;1999.90;999.90;;;;;;;;;;4974205;28;20290;-70
2023/09/12 08:02:23;;;;;;;1999.90;999.90;;;;;;;;;;4977317;28;20208;-69
2023/09/12 08:05:09;;;;;;;1999.90;999.90;;;;;;;;;;4972664;28;20216;-69
2023/09/12 08:07:55;;;;;;;1999.90;999.90;;;;;;;;;;4977672;28;20909;-70
2023/09/12 08:10:39;;;;;;;1999.90;999.90;;;;;;;;;;4979044;28;20231;-69
2023/09/12 08:13:26;;;;;;;1999.90;999.90;;;;;;;;;;4975117;28;20219;-70
2023/09/12 08:16:11;;;;;;;1999.90;999.90;;;;;;;;;;4973600;28;20236;-70
2023/09/12 08:18:56;;;;;;;1999.90;999.90;;;;;;;;;;4978001;28;20694;-70
2023/09/12 08:21:42;;;;;;;1999.90;999.90;;;;;;;;;;4972009;28;20290;-70
2023/09/12 08:24:27;;;;;;;1999.90;999.90;;;;;;;;;;4974321;28;20223;-70
2023/09/12 08:27:13;;;;;;;1999.90;999.90;;;;;;;;;;4975452;28;20224;-69
2023/09/12 08:29:58;;;;;;;1999.90;999.90;;;;;;;;;;4976723;28;20316;-70
2023/09/12 08:32:44;;;;;;;1999.90;999.90;;;;;;;;;;4975702;28;20211;-70
2023/09/12 08:35:29;;;;;;;1999.90;999.90;;;;;;;;;;4973702;28;20577;-70
2023/09/12 08:38:15;;;;;;;1999.90;999.90;;;;;;;;;;4985514;28;20234;-70
2023/09/12 08:41:00;;;;;;;1999.90;999.90;;;;;;;;;;4978116;28;20212;-71
2023/09/12 08:43:46;;;;;;;1999.90;999.90;;;;;;;;;;4972043;28;20227;-71
2023/09/12 08:46:31;;;;;;;1999.90;999.90;;;;;;;;;;4972200;28;20225;-70
2023/09/12 08:49:16;;;;;;;1999.90;999.90;;;;;;;;;;4974395;28;20219;-71
2023/09/12 08:52:02;;;;;;;1999.90;999.90;;;;;;;;;;4976342;28;20216;-71
2023/09/12 08:54:48;;;;;;;1999.90;999.90;;;;;;;;;;4975220;28;20231;-72
2023/09/12 08:57:34;;;;;;;1999.90;999.90;;;;;;;;;;4976187;28;20277;-72
2023/09/12 09:00:20;;;;;;;1999.90;999.90;;;;;;;;;;4978176;28;20255;-72
2023/09/12 09:03:05;;;;;;;1999.90;999.90;;;;;;;;;;4977305;28;20840;-70
2023/09/12 09:05:50;;;;;;;1999.90;999.90;;;;;;;;;;4974951;28;20297;-71
2023/09/12 09:08:35;;;;;;;1999.90;999.90;;;;;;;;;;4972395;28;20708;-70
2023/09/12 09:11:22;;;;;;;1999.90;999.90;;;;;;;;;;4977777;28;20211;-70
2023/09/12 09:14:06;;;;;;;1999.90;999.90;;;;;;;;;;4975675;28;20219;-69
2023/09/12 09:16:51;;;;;;;1999.90;999.90;;;;;;;;;;4976564;28;20651;-70
2023/09/12 09:19:43;;;;;;;1999.90;999.90;;;;;;;;;;4971638;28;20220;-70
2023/09/12 09:22:28;;;;;;;1999.90;999.90;;;;;;;;;;4975821;28;20216;-70
2023/09/12 09:25:13;;;;;;;1999.90;999.90;;;;;;;;;;4975387;28;20704;-71
2023/09/12 09:27:59;;;;;;;1999.90;999.90;;;;;;;;;;4975211;28;20343;-70
2023/09/12 09:30:45;;;;;;;1999.90;999.90;;;;;;;;;;4973095;28;20220;-70
2023/09/12 09:33:35;;;;;;;1999.90;999.90;;;;;;;;;;4975969;28;20219;-71
2023/09/12 09:36:21;;;;;;;1999.90;999.90;;;;;;;;;;4978865;28;20275;-70
2023/09/12 09:39:06;;;;;;;1999.90;999.90;;;;;;;;;;4976459;28;20284;-70
2023/09/12 09:41:52;;;;;;;1999.90;999.90;;;;;;;;;;4974004;28;20223;-71
2023/09/12 09:44:39;;;;;;;1999.90;999.90;;;;;;;;;;4978701;28;20223;-70
2023/09/12 09:47:24;;;;;;;1999.90;999.90;;;;;;;;;;4972070;28;20472;-71
2023/09/12 09:50:10;;;;;;;1999.90;999.90;;;;;;;;;;4980761;28;20255;-71
2023/09/12 09:52:57;;;;;;;1999.90;999.90;;;;;;;;;;4992405;28;20632;-71
2023/09/12 09:55:42;;;;;;;1999.90;999.90;;;;;;;;;;4976318;28;20220;-71
2023/09/12 09:58:27;;;;;;;1999.90;999.90;;;;;;;;;;4978270;28;20204;-71
2023/09/12 10:01:14;;;;;;;1999.90;999.90;;;;;;;;;;4975407;28;20686;-70
2023/09/12 10:04:00;;;;;;;1999.90;999.90;;;;;;;;;;4967815;28;20209;-71
2023/09/12 10:06:46;;;;;;;1999.90;999.90;;;;;;;;;;4985366;28;20237;-71
2023/09/12 10:09:31;;;;;;;1999.90;999.90;;;;;;;;;;4974893;28;20297;-71
2023/09/12 10:12:16;;;;;;;1999.90;999.90;;;;;;;;;;4969844;28;20440;-71
2023/09/12 10:15:02;;;;;;;1999.90;999.90;;;;;;;;;;4977497;28;20348;-71
2023/09/12 10:17:56;;;;;;;1999.90;999.90;;;;;;;;;;4975271;28;20323;-71
2023/09/12 10:20:45;;;;;;;1999.90;999.90;;;;;;;;;;4971374;28;20217;-71
2023/09/12 10:23:36;;;;;;;1999.90;999.90;;;;;;;;;;4976764;28;20255;-69
2023/09/12 10:26:22;;;;;;;1999.90;999.90;;;;;;;;;;4975089;28;20224;-70
2023/09/12 10:29:07;;;;;;;1999.90;999.90;;;;;;;;;;4985318;28;20209;-71
2023/09/12 10:31:52;;;;;;;1999.90;999.90;;;;;;;;;;4975589;28;20238;-71
2023/09/12 10:34:38;;;;;;;1999.90;999.90;;;;;;;;;;4973085;28;20216;-71
2023/09/12 10:37:26;;;;;;;1999.90;999.90;;;;;;;;;;4970624;28;20701;-71
2023/09/12 10:40:12;;;;;;;1999.90;999.90;;;;;;;;;;4974758;28;20216;-70
2023/09/12 10:42:57;;;;;;;1999.90;999.90;;;;;;;;;;4977284;28;20297;-70
2023/09/12 10:45:42;;;;;;;1999.90;999.90;;;;;;;;;;4975707;28;20414;-70
2023/09/12 10:48:27;;;;;;;1999.90;999.90;;;;;;;;;;4977378;28;20214;-71
2023/09/12 10:51:14;;;;;;;1999.90;999.90;;;;;;;;;;4977124;28;20707;-70
2023/09/12 10:53:59;;;;;;;1999.90;999.90;;;;;;;;;;4978052;28;20391;-71
2023/09/12 10:56:44;;;;;;;1999.90;999.90;;;;;;;;;;4977852;28;20281;-71
2023/09/12 10:59:31;;;;;;;1999.90;999.90;;;;;;;;;;4985228;28;20236;-69
2023/09/12 11:02:29;;;;;;;1999.90;999.90;;;;;;;;;;4979108;28;20219;-70
2023/09/12 11:05:33;;;;;;;1999.90;999.90;;;;;;;;;;4976339;28;20350;-70
2023/09/12 11:08:19;;;;;;;1999.90;999.90;;;;;;;;;;4978363;28;20691;-70
2023/09/12 11:11:17;;;;;;;1999.90;999.90;;;;;;;;;;4979970;28;20536;-70
2023/09/12 11:14:06;;;;;;;1999.90;999.90;;;;;;;;;;4971918;28;20281;-70
2023/09/12 11:17:10;;;;;;;1999.90;999.90;;;;;;;;;;4977703;28;20302;-69
2023/09/12 11:20:09;;;;;;;1999.90;999.90;;;;;;;;;;4978401;28;20218;-71
2023/09/12 11:23:10;;;;;;;1999.90;999.90;;;;;;;;;;4975569;28;20215;-71
2023/09/12 11:26:06;;;;;;;1999.90;999.90;;;;;;;;;;4983125;28;20599;-72
2023/09/12 11:28:52;;;;;;;1999.90;999.90;;;;;;;;;;4981892;28;20696;-72
2023/09/12 11:31:41;;;;;;;1999.90;999.90;;;;;;;;;;4977242;28;20226;-72
2023/09/12 11:34:27;;;;;;;1999.90;999.90;;;;;;;;;;4981915;28;20211;-72
2023/09/12 11:37:23;;;;;;;1999.90;999.90;;;;;;;;;;4977939;28;20735;-71
2023/09/12 11:40:18;;;;;;;1999.90;999.90;;;;;;;;;;4978069;28;20258;-71
2023/09/12 11:43:05;;;;;;;1999.90;999.90;;;;;;;;;;4983308;28;20672;-71
2023/09/12 11:45:51;;;;;;;1999.90;999.90;;;;;;;;;;4982938;28;20215;-71
2023/09/12 11:48:36;;;;;;;1999.90;999.90;;;;;;;;;;4975518;28;20281;-71
2023/09/12 11:51:23;;;;;;;1999.90;999.90;;;;;;;;;;4975453;28;20330;-71
2023/09/12 11:54:08;;;;;;;1999.90;999.90;;;;;;;;;;4977213;28;20401;-70
2023/09/12 11:56:56;;;;;;;1999.90;999.90;;;;;;;;;;4986765;28;20261;-72
2023/09/12 11:59:45;;;;;;;1999.90;999.90;;;;;;;;;;4990815;28;20266;-71
2023/09/12 12:02:29;;;;;;;1999.90;999.90;;;;;;;;;;4972127;28;20591;-71
2023/09/12 12:05:14;;;;;;;1999.90;999.90;;;;;;;;;;4980465;28;20216;-72
2023/09/12 12:07:59;;;;;;;1999.90;999.90;;;;;;;;;;4994661;28;20310;-72
2023/09/12 12:10:49;;;;;;;1999.90;999.90;;;;;;;;;;4994886;28;20214;-72
2023/09/12 12:13:35;;;;;;;1999.90;999.90;;;;;;;;;;4994589;28;20209;-71
2023/09/12 12:16:21;;;;;;;1999.90;999.90;;;;;;;;;;4994532;28;20235;-71
2023/09/12 12:19:06;;;;;;;1999.90;999.90;;;;;;;;;;4994772;28;20435;-71
2023/09/12 12:21:50;;;;;;;1999.90;999.90;;;;;;;;;;4993393;28;20400;-71
2023/09/12 12:24:39;;;;;;;1999.90;999.90;;;;;;;;;;4994416;28;20336;-71
2023/09/12 12:27:24;;;;;;;1999.90;999.90;;;;;;;;;;4994333;28;20224;-71
2023/09/12 12:30:10;;;;;;;1999.90;999.90;;;;;;;;;;4994707;28;20572;-71
2023/09/12 12:32:56;;;;;;;1999.90;999.90;;;;;;;;;;4994260;28;20290;-71
2023/09/12 12:35:41;;;;;;;1999.90;999.90;;;;;;;;;;4994426;28;20350;-71
2023/09/12 12:38:26;;;;;;;1999.90;999.90;;;;;;;;;;4994063;28;20338;-70
2023/09/12 12:41:11;;;;;;;1999.90;999.90;;;;;;;;;;4994305;28;20207;-71
2023/09/12 12:43:58;;;;;;;1999.90;999.90;;;;;;;;;;4994394;28;20210;-71
2023/09/12 12:46:48;;;;;;;1999.90;999.90;;;;;;;;;;4994124;28;20762;-71
2023/09/12 12:49:39;;;;;;;1999.90;999.90;;;;;;;;;;4994392;28;20250;-71
2023/09/12 12:52:25;;;;;;;1999.90;999.90;;;;;;;;;;4994355;28;20735;-69
2023/09/12 12:55:11;;;;;;;1999.90;999.90;;;;;;;;;;4993738;28;20232;-70
2023/09/12 12:57:56;;;;;;;1999.90;999.90;;;;;;;;;;4993719;28;20231;-71
2023/09/12 13:00:41;;;;;;;1999.90;999.90;;;;;;;;;;4993687;28;20641;-71
2023/09/12 13:03:26;;;;;;;1999.90;999.90;;;;;;;;;;4992959;28;20487;-71
2023/09/12 13:06:14;;;;;;;1999.90;999.90;;;;;;;;;;4993688;28;20233;-71
2023/09/12 13:09:01;;;;;;;1999.90;999.90;;;;;;;;;;4993772;28;20203;-70
2023/09/12 13:11:46;;;;;;;1999.90;999.90;;;;;;;;;;4993422;28;20207;-71
2023/09/12 13:14:32;;;;;;;1999.90;999.90;;;;;;;;;;4993707;28;20688;-70
2023/09/12 13:17:17;;;;;;;1999.90;999.90;;;;;;;;;;4993508;28;20235;-71
2023/09/12 13:20:01;;;;;;;1999.90;999.90;;;;;;;;;;4993079;28;20323;-71
2023/09/12 13:22:48;;;;;;;1999.90;999.90;;;;;;;;;;4993371;28;20211;-71
2023/09/12 13:25:33;;;;;;;1999.90;999.90;;;;;;;;;;4993427;28;20211;-71
2023/09/12 13:28:17;;;;;;;1999.90;999.90;;;;;;;;;;4993326;28;20691;-71
2023/09/12 13:31:03;;;;;;;1999.90;999.90;;;;;;;;;;4991683;28;20397;-71
2023/09/12 13:33:48;;;;;;;1999.90;999.90;;;;;;;;;;4992997;28;20207;-70
2023/09/12 13:36:33;;;;;;;1999.90;999.90;;;;;;;;;;4993109;28;20223;-71
2023/09/12 13:39:19;;;;;;;1999.90;999.90;;;;;;;;;;4993210;28;20731;-71
2023/09/12 13:42:05;;;;;;;1999.90;999.90;;;;;;;;;;4993085;28;20334;-71
2023/09/12 13:44:50;;;;;;;1999.90;999.90;;;;;;;;;;4993097;28;20262;-72
2023/09/12 13:47:35;;;;;;;1999.90;999.90;;;;;;;;;;4992925;28;20227;-71
2023/09/12 13:50:20;;;;;;;1999.90;999.90;;;;;;;;;;4992996;28;20203;-71
2023/09/12 13:53:06;;;;;;;1999.90;999.90;;;;;;;;;;4992595;28;20234;-71
2023/09/12 13:55:52;;;;;;;1999.90;999.90;;;;;;;;;;4992761;28;20251;-71
2023/09/12 13:58:37;;;;;;;1999.90;999.90;;;;;;;;;;4992695;28;20608;-71
2023/09/12 14:01:23;;;;;;;1999.90;999.90;;;;;;;;;;4992570;28;20211;-69
2023/09/12 14:04:08;;;;;;;1999.90;999.90;;;;;;;;;;4992514;28;20691;-71
2023/09/12 14:06:52;;;;;;;1999.90;999.90;;;;;;;;;;4993205;28;20587;-72
2023/09/12 14:09:37;;;;;;;1999.90;999.90;;;;;;;;;;4978607;28;20689;-71
2023/09/12 14:12:24;;;;;;;1999.90;999.90;;;;;;;;;;4966328;28;20533;-71
2023/09/12 14:15:09;;;;;;;1999.90;999.90;;;;;;;;;;4969269;28;20256;-72
2023/09/12 14:17:55;;;;;;;1999.90;999.90;;;;;;;;;;4974823;28;20231;-70
2023/09/12 14:20:39;;;;;;;1999.90;999.90;;;;;;;;;;4970206;28;20285;-71
2023/09/12 14:23:24;;;;;;;1999.90;999.90;;;;;;;;;;4974085;28;20348;-71
2023/09/12 14:26:09;;;;;;;1999.90;999.90;;;;;;;;;;4971383;28;20220;-69
2023/09/12 14:28:56;;;;;;;1999.90;999.90;;;;;;;;;;4973033;28;20583;-70
2023/09/12 14:31:49;;;;;;;1999.90;999.90;;;;;;;;;;4978208;28;20235;-71
2023/09/12 14:34:33;;;;;;;1999.90;999.90;;;;;;;;;;4973445;28;20200;-70
2023/09/12 14:37:18;;;;;;;1999.90;999.90;;;;;;;;;;4975274;28;20238;-71
2023/09/12 14:40:04;;;;;;;1999.90;999.90;;;;;;;;;;4971371;28;20648;-70
2023/09/12 14:42:50;;;;;;;1999.90;999.90;;;;;;;;;;4970775;28;20204;-70
2023/09/12 14:45:36;;;;;;;1999.90;999.90;;;;;;;;;;4976779;28;20210;-70
2023/09/12 14:48:21;;;;;;;1999.90;999.90;;;;;;;;;;4977701;28;20276;-70
2023/09/12 14:51:06;;;;;;;1999.90;999.90;;;;;;;;;;4974142;28;20251;-70
2023/09/12 14:53:51;;;;;;;1999.90;999.90;;;;;;;;;;4977808;28;20216;-71
2023/09/12 14:56:36;;;;;;;1999.90;999.90;;;;;;;;;;4977557;28;20238;-71
2023/09/12 14:59:21;;;;;;;1999.90;999.90;;;;;;;;;;4976423;28;20251;-70
2023/09/12 15:02:07;;;;;;;1999.90;999.90;;;;;;;;;;4978560;28;20212;-71
2023/09/12 15:04:53;;;;;;;1999.90;999.90;;;;;;;;;;4974132;28;20211;-70
2023/09/12 15:07:38;;;;;;;1999.90;999.90;;;;;;;;;;4979766;28;20729;-70
2023/09/12 15:10:24;;;;;;;1999.90;999.90;;;;;;;;;;4977475;28;20703;-71
2023/09/12 15:13:09;;;;;;;1999.90;999.90;;;;;;;;;;4981706;28;20215;-71
2023/09/12 15:15:54;;;;;;;1999.90;999.90;;;;;;;;;;4974693;28;20922;-71
2023/09/12 15:18:42;;;;;;;1999.90;999.90;;;;;;;;;;4976001;28;20230;-70
2023/09/12 15:21:27;;;;;;;1999.90;999.90;;;;;;;;;;4976798;28;20231;-68
2023/09/12 15:24:12;;;;;;;1999.90;999.90;;;;;;;;;;4971124;28;20703;-71
2023/09/12 15:26:57;;;;;;;1999.90;999.90;;;;;;;;;;4974124;28;20232;-70